createdAt,value
2019-03-25T00:02:10.929Z,2.50
2019-03-25T00:04:53.294Z,2.60
2019-03-25T00:07:23.681Z,2.60
2019-03-25T00:09:54.035Z,2.60
2019-03-25T00:12:24.421Z,2.60
2019-03-25T00:14:54.769Z,2.60
2019-03-25T00:17:25.149Z,2.70
2019-03-25T00:19:55.501Z,2.70
2019-03-25T00:22:25.884Z,2.70
2019-03-25T00:24:56.238Z,2.70
2019-03-25T00:27:26.620Z,2.70
2019-03-25T00:29:56.975Z,2.80
2019-03-25T00:32:27.348Z,2.80
2019-03-25T00:34:57.704Z,2.90
2019-03-25T00:37:28.082Z,2.90
2019-03-25T00:39:58.439Z,3.00
2019-03-25T00:42:28.822Z,3.00
2019-03-25T00:44:59.179Z,3.10
2019-03-25T00:47:29.558Z,3.20
2019-03-25T00:49:59.913Z,3.40
2019-03-25T00:52:30.295Z,3.50
2019-03-25T00:55:00.650Z,3.60
2019-03-25T00:57:31.025Z,3.60
2019-03-25T01:00:01.398Z,3.70
2019-03-25T01:02:33.431Z,3.80
2019-03-25T01:05:04.254Z,3.90
2019-03-25T01:07:34.625Z,4.00
2019-03-25T01:10:07.685Z,4.20
2019-03-25T01:12:38.040Z,4.20
2019-03-25T01:15:08.848Z,4.20
2019-03-25T01:17:39.259Z,4.20
2019-03-25T01:20:10.327Z,4.20
2019-03-25T01:22:40.648Z,4.10
2019-03-25T01:25:11.026Z,4.10
2019-03-25T01:27:41.383Z,4.10
2019-03-25T01:30:12.965Z,4.10
2019-03-25T01:32:43.326Z,4.10
2019-03-25T01:35:13.703Z,4.10
2019-03-25T01:37:44.055Z,4.10
2019-03-25T01:40:15.146Z,4.20
2019-03-25T01:42:45.503Z,4.20
2019-03-25T01:45:15.955Z,4.20
2019-03-25T01:47:46.313Z,4.10
2019-03-25T01:50:16.685Z,4.10
2019-03-25T01:52:47.035Z,4.00
2019-03-25T01:55:17.417Z,4.00
2019-03-25T01:57:47.770Z,4.00
2019-03-25T02:00:30.003Z,4.00
2019-03-25T02:03:00.354Z,4.00
2019-03-25T02:05:30.735Z,4.00
2019-03-25T02:08:01.094Z,4.10
2019-03-25T02:10:31.470Z,4.00
2019-03-25T02:13:01.828Z,4.00
2019-03-25T02:15:32.209Z,4.10
2019-03-25T02:18:02.663Z,4.10
2019-03-25T02:20:33.046Z,4.10
2019-03-25T02:23:03.643Z,4.10
2019-03-25T02:25:34.162Z,4.10
2019-03-25T02:28:04.522Z,4.10
2019-03-25T02:30:34.982Z,4.10
2019-03-25T02:33:05.345Z,4.10
2019-03-25T02:35:47.470Z,4.10
2019-03-25T02:38:17.848Z,4.10
2019-03-25T02:40:48.228Z,4.10
2019-03-25T02:43:18.586Z,4.10
2019-03-25T02:45:48.964Z,4.10
2019-03-25T02:48:19.330Z,4.00
2019-03-25T02:50:49.712Z,3.90
2019-03-25T02:53:20.068Z,3.80
2019-03-25T02:55:50.453Z,3.70
2019-03-25T02:58:20.881Z,3.60
2019-03-25T03:00:51.323Z,3.60
2019-03-25T03:03:21.675Z,3.50
2019-03-25T03:05:52.063Z,3.50
2019-03-25T03:08:22.414Z,3.50
2019-03-25T03:10:52.793Z,3.60
2019-03-25T03:13:23.153Z,3.60
2019-03-25T03:15:53.527Z,3.60
2019-03-25T03:18:23.882Z,3.60
2019-03-25T03:20:54.264Z,3.60
2019-03-25T03:23:24.617Z,3.60
2019-03-25T03:25:57.793Z,3.60
2019-03-25T03:28:27.101Z,3.60
2019-03-25T03:30:57.489Z,3.60
2019-03-25T03:33:27.856Z,3.70
2019-03-25T03:35:58.224Z,3.70
2019-03-25T03:38:28.583Z,3.60
2019-03-25T03:40:59.672Z,3.60
2019-03-25T03:43:30.034Z,3.50
2019-03-25T03:46:00.412Z,3.50
2019-03-25T03:48:30.771Z,3.40
2019-03-25T03:51:01.719Z,3.30
2019-03-25T03:53:32.544Z,3.20
2019-03-25T03:56:12.784Z,3.10
2019-03-25T03:58:36.031Z,3.10
2019-03-25T04:01:06.411Z,2.90
2019-03-25T04:03:36.762Z,3.00
2019-03-25T04:06:07.146Z,3.10
2019-03-25T04:08:37.511Z,3.10
2019-03-25T04:11:07.884Z,3.10
2019-03-25T04:13:38.235Z,3.10
2019-03-25T04:16:08.611Z,3.20
2019-03-25T04:18:38.972Z,3.20
2019-03-25T04:21:09.348Z,3.30
2019-03-25T04:23:39.726Z,3.40
2019-03-25T04:26:10.093Z,3.50
2019-03-25T04:28:40.437Z,3.60
2019-03-25T04:31:10.822Z,3.70
2019-03-25T04:33:41.245Z,3.70
2019-03-25T04:36:11.626Z,3.80
2019-03-25T04:38:41.979Z,3.90
2019-03-25T04:41:12.366Z,4.00
2019-03-25T04:43:42.725Z,4.20
2019-03-25T04:46:13.279Z,4.20
2019-03-25T04:48:43.636Z,4.30
2019-03-25T04:51:14.026Z,4.50
2019-03-25T04:53:44.378Z,4.60
2019-03-25T04:56:14.775Z,4.60
2019-03-25T04:58:45.133Z,4.70
2019-03-25T05:01:15.516Z,4.60
2019-03-25T05:03:45.905Z,4.60
2019-03-25T05:06:16.264Z,4.60
2019-03-25T05:08:46.653Z,4.70
2019-03-25T05:11:16.999Z,4.60
2019-03-25T05:13:47.380Z,4.70
2019-03-25T05:16:18.717Z,4.60
2019-03-25T05:18:49.194Z,4.60
2019-03-25T05:21:19.563Z,4.60
2019-03-25T05:23:49.946Z,4.50
2019-03-25T05:26:21.478Z,4.50
2019-03-25T05:28:51.855Z,4.50
2019-03-25T05:31:22.206Z,4.60
2019-03-25T05:33:52.597Z,4.70
2019-03-25T05:36:22.953Z,4.80
2019-03-25T05:38:53.336Z,4.80
2019-03-25T05:41:23.692Z,4.80
2019-03-25T05:43:54.075Z,4.80
2019-03-25T05:46:24.807Z,4.70
2019-03-25T05:48:55.183Z,4.60
2019-03-25T05:51:25.540Z,4.60
2019-03-25T05:53:55.918Z,4.50
2019-03-25T05:56:26.280Z,4.50
2019-03-25T05:58:56.664Z,4.50
2019-03-25T06:01:27.289Z,4.40
2019-03-25T06:03:57.673Z,4.40
2019-03-25T06:06:28.028Z,4.40
2019-03-25T06:08:58.419Z,4.40
2019-03-25T06:11:28.772Z,4.40
2019-03-25T06:13:59.222Z,4.20
2019-03-25T06:16:29.586Z,4.10
2019-03-25T06:18:59.962Z,4.00
2019-03-25T06:21:30.317Z,3.90
2019-03-25T06:24:00.709Z,3.90
2019-03-25T06:26:31.072Z,3.80
2019-03-25T06:29:01.483Z,3.80
2019-03-25T06:31:31.848Z,3.80
2019-03-25T06:34:02.233Z,3.80
2019-03-25T06:36:33.564Z,3.70
2019-03-25T06:39:05.314Z,3.70
2019-03-25T06:41:35.672Z,3.70
2019-03-25T06:44:06.057Z,3.60
2019-03-25T06:46:36.417Z,3.50
2019-03-25T06:49:06.792Z,3.50
2019-03-25T06:51:38.221Z,3.50
2019-03-25T06:54:08.594Z,3.40
2019-03-25T06:56:38.960Z,3.30
2019-03-25T06:59:10.291Z,3.20
2019-03-25T07:01:40.643Z,3.10
2019-03-25T07:04:11.024Z,3.10
2019-03-25T07:06:42.349Z,3.10
2019-03-25T07:09:12.738Z,3.10
2019-03-25T07:11:43.528Z,3.20
2019-03-25T07:14:14.358Z,3.20
2019-03-25T07:16:45.762Z,3.20
2019-03-25T07:19:16.130Z,3.20
2019-03-25T07:21:46.483Z,3.30
2019-03-25T07:24:16.856Z,3.30
2019-03-25T07:26:47.218Z,3.40
2019-03-25T07:29:17.605Z,3.50
2019-03-25T07:31:47.963Z,3.60
2019-03-25T07:34:18.344Z,3.70
2019-03-25T07:36:48.803Z,3.70
2019-03-25T07:39:19.190Z,3.80
2019-03-25T07:41:49.549Z,3.90
2019-03-25T07:44:19.930Z,4.00
2019-03-25T07:46:50.294Z,4.20
2019-03-25T07:49:20.679Z,4.20
2019-03-25T07:51:51.029Z,4.20
2019-03-25T07:54:21.419Z,4.20
2019-03-25T07:56:51.769Z,4.30
2019-03-25T07:59:22.203Z,4.40
2019-03-25T08:01:52.535Z,4.40
2019-03-25T08:04:22.915Z,4.50
2019-03-25T08:06:53.308Z,4.50
2019-03-25T08:09:23.691Z,4.60
2019-03-25T08:11:54.096Z,4.80
2019-03-25T08:14:24.441Z,5.10
2019-03-25T08:16:54.808Z,5.30
2019-03-25T08:19:25.175Z,5.40
2019-03-25T08:21:55.550Z,5.50
2019-03-25T08:24:25.897Z,5.40
2019-03-25T08:26:56.278Z,5.50
2019-03-25T08:29:26.634Z,5.50
2019-03-25T08:31:58.963Z,5.50
2019-03-25T08:34:29.068Z,5.50
2019-03-25T08:36:59.461Z,5.50
2019-03-25T08:39:29.821Z,5.40
2019-03-25T08:42:00.272Z,5.40
2019-03-25T08:44:30.616Z,5.40
2019-03-25T08:47:00.997Z,5.40
2019-03-25T08:49:31.357Z,5.50
2019-03-25T08:52:01.728Z,5.70
2019-03-25T08:54:32.077Z,5.70
2019-03-25T08:57:02.460Z,5.70
2019-03-25T08:59:32.807Z,5.70
2019-03-25T09:02:03.182Z,5.60
2019-03-25T09:04:33.522Z,5.60
2019-03-25T09:07:03.904Z,5.50
2019-03-25T09:09:34.258Z,5.50
2019-03-25T09:12:04.781Z,5.60
2019-03-25T09:14:35.141Z,5.90
2019-03-25T09:17:05.567Z,6.20
2019-03-25T09:19:35.919Z,6.40
2019-03-25T09:22:06.642Z,6.60
2019-03-25T09:24:37.003Z,7.20
2019-03-25T09:27:07.369Z,8.10
2019-03-25T09:29:37.719Z,8.70
2019-03-25T09:32:08.094Z,8.70
2019-03-25T09:34:38.539Z,8.70
2019-03-25T09:37:08.983Z,9.20
2019-03-25T09:39:39.334Z,9.20
2019-03-25T09:42:09.703Z,8.80
2019-03-25T09:44:40.119Z,8.40
2019-03-25T09:47:10.949Z,8.40
2019-03-25T09:49:44.516Z,8.60
2019-03-25T09:52:14.891Z,9.40
2019-03-25T09:54:45.294Z,9.30
2019-03-25T09:57:15.692Z,9.10
2019-03-25T09:59:46.267Z,9.00
2019-03-25T10:02:16.721Z,9.10
2019-03-25T10:04:47.276Z,9.20
2019-03-25T10:07:21.774Z,9.20
2019-03-25T10:09:55.179Z,9.20
2019-03-25T10:12:25.624Z,9.00
2019-03-25T10:14:56.013Z,8.80
2019-03-25T10:17:26.393Z,8.50
2019-03-25T10:19:56.739Z,8.00
2019-03-25T10:22:27.121Z,7.80
2019-03-25T10:24:57.503Z,7.50
2019-03-25T10:27:27.878Z,7.30
2019-03-25T10:29:58.237Z,7.00
2019-03-25T10:32:28.614Z,7.10
2019-03-25T10:34:58.965Z,7.40
2019-03-25T10:37:29.415Z,7.70
2019-03-25T10:39:59.772Z,7.90
2019-03-25T10:42:30.152Z,7.80
2019-03-25T10:45:00.604Z,8.00
2019-03-25T10:47:30.977Z,8.20
2019-03-25T10:50:01.338Z,9.20
2019-03-25T10:52:31.724Z,10.50
2019-03-25T10:55:02.107Z,11.00
2019-03-25T10:57:32.488Z,10.80
2019-03-25T11:00:02.956Z,10.30
2019-03-25T11:02:34.952Z,9.60
2019-03-25T11:05:07.609Z,9.90
2019-03-25T11:07:38.154Z,12.70
2019-03-25T11:10:10.074Z,15.50
2019-03-25T11:12:40.534Z,17.60
2019-03-25T11:15:11.351Z,19.30
2019-03-25T11:17:41.745Z,20.80
2019-03-25T11:20:13.613Z,21.60
2019-03-25T11:22:44.001Z,21.40
2019-03-25T11:25:16.273Z,19.60
2019-03-25T11:27:54.241Z,17.20
2019-03-25T11:30:39.948Z,14.90
2019-03-25T11:33:10.331Z,13.40
2019-03-25T11:35:40.695Z,11.90
2019-03-25T11:38:11.091Z,11.30
2019-03-25T11:40:41.458Z,12.60
2019-03-25T11:43:11.865Z,13.20
2019-03-25T11:45:42.232Z,13.60
2019-03-25T11:48:12.612Z,13.30
2019-03-25T11:50:42.996Z,16.20
2019-03-25T11:53:13.360Z,19.80
2019-03-25T11:55:43.742Z,20.20
2019-03-25T11:58:14.105Z,20.60
2019-03-25T12:00:44.666Z,21.60
2019-03-25T12:03:15.021Z,22.90
2019-03-25T12:05:45.413Z,24.10
2019-03-25T12:08:15.781Z,25.00
2019-03-25T12:10:46.153Z,25.10
2019-03-25T12:13:16.523Z,25.10
2019-03-25T12:15:46.913Z,24.50
2019-03-25T12:18:17.279Z,22.90
2019-03-25T12:20:47.721Z,20.90
2019-03-25T12:23:25.907Z,18.20
2019-03-25T12:25:50.238Z,16.20
2019-03-25T12:28:20.938Z,14.50
2019-03-25T12:30:52.799Z,13.30
2019-03-25T12:33:23.159Z,13.40
2019-03-25T12:35:53.543Z,13.80
2019-03-25T12:38:23.972Z,13.30
2019-03-25T12:40:54.362Z,12.30
2019-03-25T12:43:24.731Z,11.30
2019-03-25T12:45:55.113Z,11.30
2019-03-25T12:48:25.485Z,11.90
2019-03-25T12:50:55.866Z,11.90
2019-03-25T12:53:26.227Z,14.00
2019-03-25T12:55:56.609Z,16.10
2019-03-25T12:58:26.978Z,16.30
2019-03-25T13:03:27.325Z,18.60
2019-03-25T13:05:57.711Z,17.90
2019-03-25T13:08:33.017Z,17.70
2019-03-25T13:11:00.152Z,16.20
2019-03-25T13:13:30.520Z,15.60
2019-03-25T13:16:00.903Z,16.90
2019-03-25T13:18:31.268Z,16.80
2019-03-25T13:21:01.655Z,16.90
2019-03-25T13:23:32.017Z,16.30
2019-03-25T13:26:02.402Z,14.40
2019-03-25T13:33:32.790Z,11.50
2019-03-25T13:36:05.038Z,10.80
2019-03-25T13:38:36.465Z,10.00
2019-03-25T13:41:06.851Z,9.40
2019-03-25T13:43:38.342Z,8.90
2019-03-25T13:46:08.725Z,8.50
2019-03-25T13:48:39.077Z,8.20
2019-03-25T13:51:09.446Z,8.10
2019-03-25T13:53:39.793Z,7.90
2019-03-25T13:56:10.165Z,7.70
2019-03-25T13:58:40.513Z,7.50
2019-03-25T14:01:10.882Z,7.40
2019-03-25T14:03:41.308Z,7.20
2019-03-25T14:06:11.687Z,7.00
2019-03-25T14:08:42.053Z,6.90
2019-03-25T14:11:12.424Z,6.90
2019-03-25T14:13:49.240Z,7.00
2019-03-25T14:16:14.880Z,7.10
2019-03-25T14:18:45.234Z,7.20
2019-03-25T14:21:15.614Z,7.30
2019-03-25T14:23:46.289Z,7.30
2019-03-25T14:26:16.661Z,7.50
2019-03-25T14:28:47.005Z,7.80
2019-03-25T14:31:17.388Z,8.20
2019-03-25T14:33:47.741Z,8.60
2019-03-25T14:36:18.119Z,9.00
2019-03-25T14:38:48.542Z,9.50
2019-03-25T14:41:19.891Z,9.80
2019-03-25T14:43:50.250Z,10.00
2019-03-25T14:46:20.632Z,10.30
2019-03-25T14:48:50.982Z,10.50
2019-03-25T14:51:21.376Z,10.50
2019-03-25T14:53:51.736Z,10.20
2019-03-25T14:56:22.121Z,10.40
2019-03-25T14:58:52.479Z,10.50
2019-03-25T15:01:22.854Z,10.50
2019-03-25T15:03:53.795Z,10.40
2019-03-25T15:06:24.178Z,10.10
2019-03-25T15:08:54.525Z,9.80
2019-03-25T15:11:24.901Z,9.50
2019-03-25T15:13:55.249Z,9.30
2019-03-25T15:16:25.629Z,9.20
2019-03-25T15:18:56.080Z,9.00
2019-03-25T15:21:26.457Z,8.70
2019-03-25T15:23:56.805Z,8.40
2019-03-25T15:26:27.177Z,8.00
2019-03-25T15:28:57.699Z,7.80
2019-03-25T15:31:28.087Z,7.50
2019-03-25T15:33:58.439Z,7.40
2019-03-25T15:36:28.826Z,7.20
2019-03-25T15:38:59.178Z,7.10
2019-03-25T15:41:29.554Z,7.00
2019-03-25T15:43:59.904Z,7.00
2019-03-25T15:46:33.966Z,6.90
2019-03-25T15:49:04.586Z,6.90
2019-03-25T15:51:34.971Z,6.90
2019-03-25T15:54:05.400Z,6.90
2019-03-25T15:56:35.777Z,6.80
2019-03-25T15:59:06.174Z,6.80
2019-03-25T16:01:36.563Z,6.80
2019-03-25T16:04:06.983Z,6.70
2019-03-25T16:06:37.358Z,6.70
2019-03-25T16:09:09.062Z,6.60
2019-03-25T16:11:39.435Z,6.70
2019-03-25T16:14:09.776Z,6.60
2019-03-25T16:16:40.168Z,6.60
2019-03-25T16:19:10.618Z,6.70
2019-03-25T16:21:40.996Z,6.70
2019-03-25T16:24:11.418Z,6.70
2019-03-25T16:26:42.870Z,6.70
2019-03-25T16:29:13.227Z,6.70
2019-03-25T16:31:43.600Z,6.70
2019-03-25T16:34:13.972Z,6.60
2019-03-25T16:36:44.366Z,6.60
2019-03-25T16:39:14.840Z,6.50
2019-03-25T16:41:45.283Z,6.40
2019-03-25T16:44:15.642Z,6.40
2019-03-25T16:46:46.293Z,6.40
2019-03-25T16:49:16.653Z,6.30
2019-03-25T16:51:47.501Z,6.20
2019-03-25T16:54:17.850Z,6.20
2019-03-25T16:56:48.248Z,6.10
2019-03-25T16:59:18.592Z,6.00
2019-03-25T17:01:48.978Z,6.00
2019-03-25T17:04:19.333Z,5.90
2019-03-25T17:06:49.707Z,5.80
2019-03-25T17:09:20.249Z,5.70
2019-03-25T17:11:50.602Z,5.60
2019-03-25T17:14:20.978Z,5.60
2019-03-25T17:16:51.321Z,5.50
2019-03-25T17:19:21.696Z,5.50
2019-03-25T17:21:58.103Z,5.40
2019-03-25T17:24:24.125Z,5.30
2019-03-25T17:26:54.481Z,5.30
2019-03-25T17:29:24.852Z,5.20
2019-03-25T17:31:55.276Z,5.10
2019-03-25T17:34:25.652Z,5.10
2019-03-25T17:36:56.004Z,5.00
2019-03-25T17:39:26.376Z,4.90
2019-03-25T17:41:57.649Z,4.90
2019-03-25T17:44:28.021Z,4.80
2019-03-25T17:46:58.376Z,4.70
2019-03-25T17:49:28.925Z,4.60
2019-03-25T17:51:59.285Z,4.60
2019-03-25T17:54:29.669Z,4.50
2019-03-25T17:57:00.021Z,4.50
2019-03-25T17:59:30.392Z,4.40
2019-03-25T18:02:00.743Z,4.40
2019-03-25T18:04:31.122Z,4.40
2019-03-25T18:07:01.486Z,4.50
2019-03-25T18:09:31.867Z,4.60
2019-03-25T18:12:02.222Z,4.70
2019-03-25T18:14:33.480Z,4.80
2019-03-25T18:17:03.914Z,4.90
2019-03-25T18:19:34.293Z,5.00
2019-03-25T18:22:05.417Z,5.20
2019-03-25T18:24:35.787Z,5.30
2019-03-25T18:27:06.144Z,5.30
2019-03-25T18:29:36.517Z,5.40
2019-03-25T18:32:06.865Z,5.50
2019-03-25T18:34:37.249Z,5.50
2019-03-25T18:37:07.599Z,5.60
2019-03-25T18:39:37.976Z,5.60
2019-03-25T18:42:08.322Z,5.60
2019-03-25T18:44:38.701Z,5.60
2019-03-25T18:47:13.043Z,5.70
2019-03-25T18:49:43.430Z,5.70
2019-03-25T18:52:13.794Z,5.70
2019-03-25T18:54:44.173Z,5.60
2019-03-25T18:57:14.535Z,5.60
2019-03-25T18:59:44.927Z,5.50
2019-03-25T19:02:15.379Z,5.50
2019-03-25T19:04:46.431Z,5.40
2019-03-25T19:07:16.961Z,5.30
2019-03-25T19:09:48.191Z,5.30
2019-03-25T19:12:18.539Z,5.20
2019-03-25T19:14:48.992Z,5.10
2019-03-25T19:17:19.333Z,5.20
2019-03-25T19:19:49.688Z,5.10
2019-03-25T19:22:20.125Z,5.20
2019-03-25T19:24:50.500Z,5.10
2019-03-25T19:27:20.861Z,5.10
2019-03-25T19:29:51.251Z,5.00
2019-03-25T19:32:21.661Z,4.90
2019-03-25T19:34:52.010Z,4.80
2019-03-25T19:37:22.375Z,4.80
2019-03-25T19:39:52.767Z,4.70
2019-03-25T19:42:23.131Z,4.60
2019-03-25T19:44:53.504Z,4.50
2019-03-25T19:47:23.871Z,4.40
2019-03-25T19:49:54.280Z,4.40
2019-03-25T19:52:24.608Z,4.40
2019-03-25T19:54:54.987Z,4.40
2019-03-25T19:57:28.109Z,4.40
2019-03-25T19:59:57.453Z,4.30
2019-03-25T20:02:27.820Z,4.40
2019-03-25T20:04:58.247Z,4.30
2019-03-25T20:07:28.548Z,4.30
2019-03-25T20:09:59.144Z,4.20
2019-03-25T20:12:29.464Z,4.20
2019-03-25T20:14:59.887Z,4.30
2019-03-25T20:17:30.251Z,4.20
2019-03-25T20:20:00.606Z,4.20
2019-03-25T20:22:30.942Z,4.10
2019-03-25T20:25:01.380Z,4.10
2019-03-25T20:27:31.775Z,4.00
2019-03-25T20:30:02.223Z,4.00
2019-03-25T20:32:32.952Z,4.00
2019-03-25T20:35:03.620Z,3.90
2019-03-25T20:37:33.965Z,3.90
2019-03-25T20:40:06.732Z,3.80
2019-03-25T20:42:37.859Z,3.70
2019-03-25T20:45:13.995Z,3.70
2019-03-25T20:47:44.368Z,3.60
2019-03-25T20:50:15.725Z,3.60
2019-03-25T20:52:47.034Z,3.50
2019-03-25T20:55:17.541Z,3.50
2019-03-25T20:57:48.000Z,3.50
2019-03-25T21:00:22.937Z,3.40
2019-03-25T21:02:53.442Z,3.40
2019-03-25T21:05:23.810Z,3.30
2019-03-25T21:07:54.218Z,3.20
2019-03-25T21:10:24.605Z,3.20
2019-03-25T21:12:54.971Z,3.10
2019-03-25T21:15:25.283Z,3.10
2019-03-25T21:17:55.748Z,3.00
2019-03-25T21:20:26.088Z,3.00
2019-03-25T21:22:56.659Z,2.90
2019-03-25T21:25:27.013Z,2.90
2019-03-25T21:27:57.352Z,2.80
2019-03-25T21:30:28.437Z,2.80
2019-03-25T21:32:59.055Z,2.80
2019-03-25T21:35:30.164Z,2.70
2019-03-25T21:38:00.528Z,2.70
2019-03-25T21:40:30.949Z,2.60
2019-03-25T21:43:02.444Z,2.60
2019-03-25T21:45:32.763Z,2.60
2019-03-25T21:48:03.133Z,2.50
2019-03-25T21:50:33.643Z,2.60
2019-03-25T21:53:04.160Z,2.60
2019-03-25T21:55:34.580Z,2.60
2019-03-25T21:58:05.200Z,2.50
2019-03-25T22:00:35.540Z,2.50
2019-03-25T22:03:12.115Z,2.50
2019-03-25T22:05:38.049Z,2.50
2019-03-25T22:08:08.432Z,2.40
2019-03-25T22:10:38.794Z,2.40
2019-03-25T22:13:09.181Z,2.40
2019-03-25T22:15:39.537Z,2.30
2019-03-25T22:18:09.932Z,2.30
2019-03-25T22:20:40.283Z,2.30
2019-03-25T22:23:10.665Z,2.30
2019-03-25T22:25:41.050Z,2.30
2019-03-25T22:28:11.434Z,2.30
2019-03-25T22:30:41.788Z,2.30
2019-03-25T22:33:24.919Z,2.20
2019-03-25T22:35:44.230Z,2.20
2019-03-25T22:38:33.919Z,2.20
2019-03-25T22:41:04.308Z,2.10
2019-03-25T22:43:34.669Z,2.10
2019-03-25T22:46:05.116Z,2.10
2019-03-25T22:48:35.624Z,2.00
2019-03-25T22:51:06.012Z,2.10
2019-03-25T22:53:55.714Z,2.00
2019-03-25T22:56:26.096Z,2.00
2019-03-25T22:58:56.473Z,2.00
2019-03-25T23:01:27.195Z,1.90
2019-03-25T23:03:57.557Z,1.90
2019-03-25T23:06:28.263Z,1.90
2019-03-25T23:08:58.620Z,1.90
2019-03-25T23:11:29.005Z,1.90
2019-03-25T23:13:59.368Z,1.90
2019-03-25T23:16:29.817Z,1.90
2019-03-25T23:19:00.168Z,1.90
2019-03-25T23:21:30.555Z,1.80
2019-03-25T23:24:00.939Z,1.90
2019-03-25T23:26:31.380Z,2.00
2019-03-25T23:29:01.734Z,2.20
2019-03-25T23:31:32.278Z,2.30
2019-03-25T23:34:02.641Z,2.50
2019-03-25T23:36:33.093Z,2.70
2019-03-25T23:39:04.801Z,2.80
2019-03-25T23:41:35.440Z,2.90
2019-03-25T23:44:05.805Z,3.00
2019-03-25T23:46:36.186Z,3.20
2019-03-25T23:49:06.552Z,3.20
2019-03-25T23:51:36.933Z,3.30
2019-03-25T23:54:14.362Z,3.30
2019-03-25T23:56:44.820Z,3.40
2019-03-25T23:59:15.177Z,3.40
